sensor_id;sensor_type;location;lat;lon;timestamp;P1;durP1;ratioP1;P2;durP2;ratioP2
7997;SDS011;4044;49.814;7.828;2023-06-01T00:01:26;2.90;;;2.30;;
7997;SDS011;4044;49.814;7.828;2023-06-01T00:03:52;2.93;;;2.50;;
7997;SDS011;4044;49.814;7.828;2023-06-01T00:06:17;2.63;;;2.40;;
7997;SDS011;4044;49.814;7.828;2023-06-01T00:08:43;3.77;;;2.57;;
7997;SDS011;4044;49.814;7.828;2023-06-01T00:11:08;3.03;;;2.73;;
7997;SDS011;4044;49.814;7.828;2023-06-01T00:13:34;3.67;;;2.80;;
7997;SDS011;4044;49.814;7.828;2023-06-01T00:16:00;2.93;;;2.60;;
7997;SDS011;4044;49.814;7.828;2023-06-01T00:18:26;3.60;;;2.90;;
7997;SDS011;4044;49.814;7.828;2023-06-01T00:20:52;4.37;;;2.80;;
7997;SDS011;4044;49.814;7.828;2023-06-01T00:23:18;3.43;;;2.70;;
7997;SDS011;4044;49.814;7.828;2023-06-01T00:25:45;3.53;;;2.87;;
7997;SDS011;4044;49.814;7.828;2023-06-01T00:28:10;4.63;;;2.80;;
7997;SDS011;4044;49.814;7.828;2023-06-01T00:30:36;3.30;;;2.80;;
7997;SDS011;4044;49.814;7.828;2023-06-01T00:33:02;4.40;;;3.10;;
7997;SDS011;4044;49.814;7.828;2023-06-01T00:35:27;5.67;;;2.80;;
7997;SDS011;4044;49.814;7.828;2023-06-01T00:37:53;3.50;;;3.20;;
7997;SDS011;4044;49.814;7.828;2023-06-01T00:40:18;3.83;;;2.70;;
7997;SDS011;4044;49.814;7.828;2023-06-01T00:42:44;4.83;;;3.03;;
7997;SDS011;4044;49.814;7.828;2023-06-01T00:45:09;3.27;;;2.93;;
7997;SDS011;4044;49.814;7.828;2023-06-01T00:47:38;3.67;;;2.70;;
7997;SDS011;4044;49.814;7.828;2023-06-01T00:50:07;6.00;;;3.07;;
7997;SDS011;4044;49.814;7.828;2023-06-01T00:52:33;3.43;;;3.13;;
7997;SDS011;4044;49.814;7.828;2023-06-01T00:55:02;2.60;;;2.40;;
7997;SDS011;4044;49.814;7.828;2023-06-01T00:57:28;2.80;;;2.60;;
7997;SDS011;4044;49.814;7.828;2023-06-01T00:59:54;4.60;;;2.93;;
7997;SDS011;4044;49.814;7.828;2023-06-01T01:02:21;4.83;;;2.70;;
7997;SDS011;4044;49.814;7.828;2023-06-01T01:04:48;3.97;;;3.20;;
7997;SDS011;4044;49.814;7.828;2023-06-01T01:07:54;2.50;;;2.30;;
7997;SDS011;4044;49.814;7.828;2023-06-01T01:22:25;2.63;;;2.50;;
7997;SDS011;4044;49.814;7.828;2023-06-01T01:25:02;3.90;;;2.63;;
7997;SDS011;4044;49.814;7.828;2023-06-01T01:30:31;3.10;;;2.80;;
7997;SDS011;4044;49.814;7.828;2023-06-01T01:32:57;3.13;;;2.77;;
7997;SDS011;4044;49.814;7.828;2023-06-01T01:35:23;2.83;;;2.63;;
7997;SDS011;4044;49.814;7.828;2023-06-01T01:37:51;3.83;;;2.87;;
7997;SDS011;4044;49.814;7.828;2023-06-01T01:40:17;3.07;;;2.87;;
7997;SDS011;4044;49.814;7.828;2023-06-01T01:42:43;2.93;;;2.70;;
7997;SDS011;4044;49.814;7.828;2023-06-01T01:45:09;4.63;;;3.00;;
7997;SDS011;4044;49.814;7.828;2023-06-01T01:47:36;5.60;;;3.00;;
7997;SDS011;4044;49.814;7.828;2023-06-01T01:50:22;3.27;;;2.80;;
7997;SDS011;4044;49.814;7.828;2023-06-01T01:52:53;3.17;;;2.83;;
7997;SDS011;4044;49.814;7.828;2023-06-01T01:55:21;5.33;;;3.20;;
7997;SDS011;4044;49.814;7.828;2023-06-01T01:57:50;4.33;;;3.20;;
7997;SDS011;4044;49.814;7.828;2023-06-01T02:00:16;3.50;;;3.20;;
7997;SDS011;4044;49.814;7.828;2023-06-01T02:02:44;3.30;;;2.60;;
7997;SDS011;4044;49.814;7.828;2023-06-01T02:05:10;5.57;;;2.60;;
7997;SDS011;4044;49.814;7.828;2023-06-01T02:07:36;3.33;;;2.70;;
7997;SDS011;4044;49.814;7.828;2023-06-01T02:10:01;3.37;;;2.70;;
7997;SDS011;4044;49.814;7.828;2023-06-01T02:12:27;4.17;;;2.80;;
7997;SDS011;4044;49.814;7.828;2023-06-01T02:14:52;3.03;;;2.73;;
7997;SDS011;4044;49.814;7.828;2023-06-01T02:17:18;4.00;;;3.03;;
7997;SDS011;4044;49.814;7.828;2023-06-01T02:19:46;3.30;;;3.00;;
7997;SDS011;4044;49.814;7.828;2023-06-01T02:22:12;3.10;;;2.80;;
7997;SDS011;4044;49.814;7.828;2023-06-01T02:24:38;3.30;;;3.00;;
7997;SDS011;4044;49.814;7.828;2023-06-01T02:27:04;5.17;;;3.30;;
7997;SDS011;4044;49.814;7.828;2023-06-01T02:29:30;5.33;;;3.63;;
7997;SDS011;4044;49.814;7.828;2023-06-01T02:31:55;3.73;;;2.97;;
7997;SDS011;4044;49.814;7.828;2023-06-01T02:34:21;4.27;;;3.40;;
7997;SDS011;4044;49.814;7.828;2023-06-01T02:36:46;3.30;;;3.00;;
7997;SDS011;4044;49.814;7.828;2023-06-01T02:39:13;3.50;;;3.20;;
7997;SDS011;4044;49.814;7.828;2023-06-01T02:41:40;3.37;;;3.07;;
7997;SDS011;4044;49.814;7.828;2023-06-01T02:44:05;5.43;;;3.00;;
7997;SDS011;4044;49.814;7.828;2023-06-01T02:46:31;3.83;;;2.93;;
7997;SDS011;4044;49.814;7.828;2023-06-01T02:48:56;3.47;;;3.17;;
7997;SDS011;4044;49.814;7.828;2023-06-01T02:51:22;5.80;;;3.00;;
7997;SDS011;4044;49.814;7.828;2023-06-01T02:53:47;3.63;;;3.10;;
7997;SDS011;4044;49.814;7.828;2023-06-01T02:56:13;3.20;;;2.90;;
7997;SDS011;4044;49.814;7.828;2023-06-01T02:58:39;3.43;;;3.00;;
7997;SDS011;4044;49.814;7.828;2023-06-01T03:01:06;3.60;;;3.00;;
7997;SDS011;4044;49.814;7.828;2023-06-01T03:03:36;5.73;;;3.30;;
7997;SDS011;4044;49.814;7.828;2023-06-01T03:06:02;3.40;;;2.80;;
7997;SDS011;4044;49.814;7.828;2023-06-01T03:08:30;5.60;;;2.97;;
7997;SDS011;4044;49.814;7.828;2023-06-01T03:10:55;3.33;;;2.97;;
7997;SDS011;4044;49.814;7.828;2023-06-01T03:13:21;3.50;;;3.20;;
7997;SDS011;4044;49.814;7.828;2023-06-01T03:15:46;3.83;;;3.20;;
7997;SDS011;4044;49.814;7.828;2023-06-01T03:18:12;3.93;;;2.93;;
7997;SDS011;4044;49.814;7.828;2023-06-01T03:20:38;3.50;;;3.10;;
7997;SDS011;4044;49.814;7.828;2023-06-01T03:23:03;4.30;;;2.80;;
7997;SDS011;4044;49.814;7.828;2023-06-01T03:25:29;4.77;;;3.30;;
7997;SDS011;4044;49.814;7.828;2023-06-01T03:27:54;3.30;;;3.00;;
7997;SDS011;4044;49.814;7.828;2023-06-01T03:30:20;5.33;;;2.93;;
7997;SDS011;4044;49.814;7.828;2023-06-01T03:32:46;3.70;;;3.37;;
7997;SDS011;4044;49.814;7.828;2023-06-01T03:35:12;5.27;;;3.27;;
7997;SDS011;4044;49.814;7.828;2023-06-01T03:37:39;4.70;;;3.13;;
7997;SDS011;4044;49.814;7.828;2023-06-01T03:40:06;4.10;;;3.63;;
7997;SDS011;4044;49.814;7.828;2023-06-01T03:45:02;7.10;;;3.40;;
7997;SDS011;4044;49.814;7.828;2023-06-01T03:47:29;3.67;;;3.37;;
7997;SDS011;4044;49.814;7.828;2023-06-01T03:49:55;4.20;;;3.33;;
7997;SDS011;4044;49.814;7.828;2023-06-01T03:52:22;3.27;;;3.00;;
7997;SDS011;4044;49.814;7.828;2023-06-01T03:54:48;4.33;;;3.27;;
7997;SDS011;4044;49.814;7.828;2023-06-01T03:57:13;3.23;;;3.00;;
7997;SDS011;4044;49.814;7.828;2023-06-01T03:59:39;5.70;;;3.60;;
7997;SDS011;4044;49.814;7.828;2023-06-01T04:02:05;4.00;;;3.43;;
7997;SDS011;4044;49.814;7.828;2023-06-01T04:04:34;3.33;;;3.07;;
7997;SDS011;4044;49.814;7.828;2023-06-01T04:07:00;5.50;;;3.87;;
7997;SDS011;4044;49.814;7.828;2023-06-01T04:09:28;3.63;;;3.33;;
7997;SDS011;4044;49.814;7.828;2023-06-01T04:11:54;6.07;;;3.43;;
7997;SDS011;4044;49.814;7.828;2023-06-01T04:14:20;3.47;;;3.17;;
7997;SDS011;4044;49.814;7.828;2023-06-01T04:16:46;4.43;;;3.40;;
7997;SDS011;4044;49.814;7.828;2023-06-01T04:19:11;4.67;;;3.50;;
7997;SDS011;4044;49.814;7.828;2023-06-01T04:21:37;4.50;;;3.40;;
7997;SDS011;4044;49.814;7.828;2023-06-01T04:24:02;3.90;;;3.50;;
7997;SDS011;4044;49.814;7.828;2023-06-01T04:26:28;5.50;;;3.47;;
7997;SDS011;4044;49.814;7.828;2023-06-01T04:28:56;4.17;;;3.77;;
7997;SDS011;4044;49.814;7.828;2023-06-01T04:31:25;5.90;;;3.73;;
7997;SDS011;4044;49.814;7.828;2023-06-01T04:33:51;6.40;;;3.50;;
7997;SDS011;4044;49.814;7.828;2023-06-01T04:36:21;3.83;;;3.43;;
7997;SDS011;4044;49.814;7.828;2023-06-01T04:38:50;4.27;;;3.30;;
7997;SDS011;4044;49.814;7.828;2023-06-01T04:41:19;5.60;;;3.83;;
7997;SDS011;4044;49.814;7.828;2023-06-01T04:43:46;3.97;;;3.57;;
7997;SDS011;4044;49.814;7.828;2023-06-01T04:46:25;3.33;;;3.03;;
7997;SDS011;4044;49.814;7.828;2023-06-01T04:48:53;3.47;;;3.27;;
7997;SDS011;4044;49.814;7.828;2023-06-01T04:51:22;3.80;;;3.40;;
7997;SDS011;4044;49.814;7.828;2023-06-01T04:53:49;6.93;;;3.90;;
7997;SDS011;4044;49.814;7.828;2023-06-01T04:56:17;5.77;;;3.93;;
7997;SDS011;4044;49.814;7.828;2023-06-01T04:58:44;4.07;;;3.70;;
7997;SDS011;4044;49.814;7.828;2023-06-01T05:01:11;5.50;;;3.63;;
7997;SDS011;4044;49.814;7.828;2023-06-01T05:03:40;3.90;;;3.60;;
7997;SDS011;4044;49.814;7.828;2023-06-01T05:06:10;5.20;;;4.20;;
7997;SDS011;4044;49.814;7.828;2023-06-01T05:08:40;5.37;;;3.90;;
7997;SDS011;4044;49.814;7.828;2023-06-01T05:11:07;8.47;;;4.17;;
7997;SDS011;4044;49.814;7.828;2023-06-01T05:13:34;4.30;;;3.17;;
7997;SDS011;4044;49.814;7.828;2023-06-01T05:16:01;5.20;;;4.10;;
7997;SDS011;4044;49.814;7.828;2023-06-01T05:18:27;5.57;;;4.43;;
7997;SDS011;4044;49.814;7.828;2023-06-01T05:20:53;4.67;;;3.93;;
7997;SDS011;4044;49.814;7.828;2023-06-01T05:23:18;6.37;;;4.30;;
7997;SDS011;4044;49.814;7.828;2023-06-01T05:25:44;4.27;;;3.90;;
7997;SDS011;4044;49.814;7.828;2023-06-01T05:28:09;4.13;;;3.73;;
7997;SDS011;4044;49.814;7.828;2023-06-01T05:30:35;5.67;;;3.80;;
7997;SDS011;4044;49.814;7.828;2023-06-01T05:33:00;5.00;;;3.80;;
7997;SDS011;4044;49.814;7.828;2023-06-01T05:35:26;4.37;;;3.57;;
7997;SDS011;4044;49.814;7.828;2023-06-01T05:37:52;6.03;;;3.80;;
7997;SDS011;4044;49.814;7.828;2023-06-01T05:40:18;4.60;;;3.77;;
7997;SDS011;4044;49.814;7.828;2023-06-01T05:42:43;5.57;;;3.70;;
7997;SDS011;4044;49.814;7.828;2023-06-01T05:45:09;6.20;;;4.37;;
7997;SDS011;4044;49.814;7.828;2023-06-01T05:47:34;11.10;;;4.20;;
7997;SDS011;4044;49.814;7.828;2023-06-01T05:50:00;5.83;;;3.90;;
7997;SDS011;4044;49.814;7.828;2023-06-01T05:52:26;7.23;;;3.83;;
7997;SDS011;4044;49.814;7.828;2023-06-01T05:54:52;6.20;;;4.13;;
7997;SDS011;4044;49.814;7.828;2023-06-01T05:57:18;7.83;;;3.60;;
7997;SDS011;4044;49.814;7.828;2023-06-01T05:59:47;3.57;;;3.27;;
7997;SDS011;4044;49.814;7.828;2023-06-01T06:02:13;4.07;;;3.37;;
7997;SDS011;4044;49.814;7.828;2023-06-01T06:04:39;3.87;;;3.43;;
7997;SDS011;4044;49.814;7.828;2023-06-01T06:07:05;5.27;;;3.30;;
7997;SDS011;4044;49.814;7.828;2023-06-01T06:09:30;5.33;;;3.30;;
7997;SDS011;4044;49.814;7.828;2023-06-01T06:11:56;6.00;;;3.60;;
7997;SDS011;4044;49.814;7.828;2023-06-01T06:14:22;4.37;;;3.17;;
7997;SDS011;4044;49.814;7.828;2023-06-01T06:16:48;4.37;;;3.00;;
7997;SDS011;4044;49.814;7.828;2023-06-01T06:19:14;4.77;;;3.20;;
7997;SDS011;4044;49.814;7.828;2023-06-01T06:21:41;4.13;;;3.37;;
7997;SDS011;4044;49.814;7.828;2023-06-01T06:24:07;4.13;;;3.30;;
7997;SDS011;4044;49.814;7.828;2023-06-01T06:26:32;4.00;;;3.20;;
7997;SDS011;4044;49.814;7.828;2023-06-01T06:28:58;3.90;;;3.07;;
7997;SDS011;4044;49.814;7.828;2023-06-01T06:31:23;4.73;;;3.03;;
7997;SDS011;4044;49.814;7.828;2023-06-01T06:33:49;5.47;;;3.10;;
7997;SDS011;4044;49.814;7.828;2023-06-01T06:36:15;3.87;;;3.37;;
7997;SDS011;4044;49.814;7.828;2023-06-01T06:38:41;6.00;;;3.27;;
7997;SDS011;4044;49.814;7.828;2023-06-01T06:41:07;3.60;;;3.10;;
7997;SDS011;4044;49.814;7.828;2023-06-01T06:43:32;2.97;;;2.60;;
7997;SDS011;4044;49.814;7.828;2023-06-01T06:45:58;3.67;;;2.70;;
7997;SDS011;4044;49.814;7.828;2023-06-01T06:48:23;3.77;;;2.90;;
7997;SDS011;4044;49.814;7.828;2023-06-01T06:50:49;4.90;;;3.30;;
7997;SDS011;4044;49.814;7.828;2023-06-01T06:53:15;3.60;;;2.70;;
7997;SDS011;4044;49.814;7.828;2023-06-01T06:55:42;4.50;;;2.85;;
7997;SDS011;4044;49.814;7.828;2023-06-01T06:58:09;4.38;;;3.00;;
7997;SDS011;4044;49.814;7.828;2023-06-01T07:00:35;2.97;;;2.72;;
7997;SDS011;4044;49.814;7.828;2023-06-01T07:03:01;3.78;;;2.60;;
7997;SDS011;4044;49.814;7.828;2023-06-01T07:05:28;2.85;;;2.60;;
7997;SDS011;4044;49.814;7.828;2023-06-01T07:07:53;4.35;;;3.08;;
7997;SDS011;4044;49.814;7.828;2023-06-01T07:10:19;4.63;;;3.15;;
7997;SDS011;4044;49.814;7.828;2023-06-01T07:12:45;7.65;;;3.17;;
7997;SDS011;4044;49.814;7.828;2023-06-01T07:15:10;4.25;;;2.85;;
7997;SDS011;4044;49.814;7.828;2023-06-01T07:17:36;4.65;;;2.90;;
7997;SDS011;4044;49.814;7.828;2023-06-01T07:20:02;3.97;;;2.75;;
7997;SDS011;4044;49.814;7.828;2023-06-01T07:22:31;4.03;;;2.42;;
7997;SDS011;4044;49.814;7.828;2023-06-01T07:24:57;3.95;;;2.80;;
7997;SDS011;4044;49.814;7.828;2023-06-01T07:27:22;3.60;;;2.50;;
7997;SDS011;4044;49.814;7.828;2023-06-01T07:29:48;4.53;;;2.78;;
7997;SDS011;4044;49.814;7.828;2023-06-01T07:32:19;4.82;;;2.40;;
7997;SDS011;4044;49.814;7.828;2023-06-01T07:34:45;3.17;;;2.40;;
7997;SDS011;4044;49.814;7.828;2023-06-01T07:37:11;2.35;;;2.20;;
7997;SDS011;4044;49.814;7.828;2023-06-01T07:39:37;3.80;;;2.53;;
7997;SDS011;4044;49.814;7.828;2023-06-01T07:42:02;5.45;;;2.60;;
7997;SDS011;4044;49.814;7.828;2023-06-01T07:44:28;3.38;;;2.50;;
7997;SDS011;4044;49.814;7.828;2023-06-01T07:46:53;6.35;;;2.80;;
7997;SDS011;4044;49.814;7.828;2023-06-01T07:49:19;4.28;;;2.42;;
7997;SDS011;4044;49.814;7.828;2023-06-01T07:51:45;4.88;;;2.53;;
7997;SDS011;4044;49.814;7.828;2023-06-01T07:54:10;2.83;;;2.60;;
7997;SDS011;4044;49.814;7.828;2023-06-01T07:56:36;3.65;;;2.78;;
7997;SDS011;4044;49.814;7.828;2023-06-01T07:59:01;5.60;;;2.58;;
7997;SDS011;4044;49.814;7.828;2023-06-01T08:01:27;4.60;;;2.50;;
7997;SDS011;4044;49.814;7.828;2023-06-01T08:03:53;5.63;;;2.67;;
7997;SDS011;4044;49.814;7.828;2023-06-01T08:06:20;3.25;;;2.33;;
7997;SDS011;4044;49.814;7.828;2023-06-01T08:08:47;5.30;;;2.20;;
7997;SDS011;4044;49.814;7.828;2023-06-01T08:11:14;4.32;;;2.72;;
7997;SDS011;4044;49.814;7.828;2023-06-01T08:13:40;5.50;;;2.50;;
7997;SDS011;4044;49.814;7.828;2023-06-01T08:16:06;4.75;;;3.00;;
7997;SDS011;4044;49.814;7.828;2023-06-01T08:18:31;2.92;;;2.50;;
7997;SDS011;4044;49.814;7.828;2023-06-01T08:20:58;5.05;;;2.70;;
7997;SDS011;4044;49.814;7.828;2023-06-01T08:23:25;6.07;;;2.47;;
7997;SDS011;4044;49.814;7.828;2023-06-01T08:25:51;2.70;;;2.47;;
7997;SDS011;4044;49.814;7.828;2023-06-01T08:28:17;4.43;;;2.50;;
7997;SDS011;4044;49.814;7.828;2023-06-01T08:30:42;3.00;;;2.47;;
7997;SDS011;4044;49.814;7.828;2023-06-01T08:33:08;3.80;;;2.58;;
7997;SDS011;4044;49.814;7.828;2023-06-01T08:35:33;4.50;;;2.50;;
7997;SDS011;4044;49.814;7.828;2023-06-01T08:38:00;2.45;;;2.25;;
7997;SDS011;4044;49.814;7.828;2023-06-01T08:40:26;2.50;;;2.30;;
7997;SDS011;4044;49.814;7.828;2023-06-01T08:43:09;3.95;;;2.70;;
7997;SDS011;4044;49.814;7.828;2023-06-01T08:45:42;4.22;;;2.53;;
7997;SDS011;4044;49.814;7.828;2023-06-01T08:48:08;8.23;;;2.25;;
7997;SDS011;4044;49.814;7.828;2023-06-01T08:50:39;3.22;;;2.33;;
7997;SDS011;4044;49.814;7.828;2023-06-01T08:53:05;3.13;;;2.20;;
7997;SDS011;4044;49.814;7.828;2023-06-01T08:55:31;3.92;;;2.20;;
7997;SDS011;4044;49.814;7.828;2023-06-01T08:57:57;3.20;;;2.22;;
7997;SDS011;4044;49.814;7.828;2023-06-01T09:00:23;3.67;;;2.47;;
7997;SDS011;4044;49.814;7.828;2023-06-01T09:02:49;3.72;;;2.30;;
7997;SDS011;4044;49.814;7.828;2023-06-01T09:05:14;4.45;;;2.50;;
7997;SDS011;4044;49.814;7.828;2023-06-01T09:07:42;2.58;;;2.38;;
7997;SDS011;4044;49.814;7.828;2023-06-01T09:10:07;2.80;;;2.50;;
7997;SDS011;4044;49.814;7.828;2023-06-01T09:12:33;2.80;;;2.50;;
7997;SDS011;4044;49.814;7.828;2023-06-01T09:15:06;2.58;;;2.38;;
7997;SDS011;4044;49.814;7.828;2023-06-01T09:17:33;4.70;;;2.50;;
7997;SDS011;4044;49.814;7.828;2023-06-01T09:20:00;3.35;;;2.47;;
7997;SDS011;4044;49.814;7.828;2023-06-01T09:22:30;3.85;;;2.38;;
7997;SDS011;4044;49.814;7.828;2023-06-01T09:25:06;6.18;;;2.45;;
7997;SDS011;4044;49.814;7.828;2023-06-01T09:27:46;3.53;;;2.30;;
7997;SDS011;4044;49.814;7.828;2023-06-01T09:30:14;2.47;;;2.25;;
7997;SDS011;4044;49.814;7.828;2023-06-01T09:32:41;2.53;;;2.30;;
7997;SDS011;4044;49.814;7.828;2023-06-01T09:35:07;2.70;;;2.28;;
7997;SDS011;4044;49.814;7.828;2023-06-01T09:37:34;4.32;;;2.10;;
7997;SDS011;4044;49.814;7.828;2023-06-01T09:40:00;2.47;;;2.22;;
7997;SDS011;4044;49.814;7.828;2023-06-01T09:42:32;3.58;;;2.22;;
7997;SDS011;4044;49.814;7.828;2023-06-01T09:45:14;3.72;;;2.28;;
7997;SDS011;4044;49.814;7.828;2023-06-01T09:47:43;3.35;;;2.38;;
7997;SDS011;4044;49.814;7.828;2023-06-01T09:50:08;3.75;;;2.35;;
7997;SDS011;4044;49.814;7.828;2023-06-01T09:52:34;4.70;;;2.70;;
7997;SDS011;4044;49.814;7.828;2023-06-01T09:55:06;2.40;;;2.20;;
7997;SDS011;4044;49.814;7.828;2023-06-01T09:57:34;5.25;;;2.22;;
7997;SDS011;4044;49.814;7.828;2023-06-01T10:00:00;2.47;;;2.20;;
7997;SDS011;4044;49.814;7.828;2023-06-01T10:02:30;2.38;;;2.17;;
7997;SDS011;4044;49.814;7.828;2023-06-01T10:04:58;4.78;;;2.38;;
7997;SDS011;4044;49.814;7.828;2023-06-01T10:07:29;4.45;;;2.58;;
7997;SDS011;4044;49.814;7.828;2023-06-01T10:09:57;4.63;;;2.55;;
7997;SDS011;4044;49.814;7.828;2023-06-01T10:12:24;5.85;;;2.78;;
7997;SDS011;4044;49.814;7.828;2023-06-01T10:14:50;6.30;;;2.70;;
7997;SDS011;4044;49.814;7.828;2023-06-01T10:17:17;2.50;;;2.30;;
7997;SDS011;4044;49.814;7.828;2023-06-01T10:19:46;4.68;;;2.42;;
7997;SDS011;4044;49.814;7.828;2023-06-01T10:22:11;5.38;;;3.22;;
7997;SDS011;4044;49.814;7.828;2023-06-01T10:24:37;4.55;;;2.70;;
7997;SDS011;4044;49.814;7.828;2023-06-01T10:27:26;7.40;;;2.80;;
7997;SDS011;4044;49.814;7.828;2023-06-01T10:29:59;6.57;;;2.53;;
7997;SDS011;4044;49.814;7.828;2023-06-01T10:35:05;4.93;;;2.88;;
7997;SDS011;4044;49.814;7.828;2023-06-01T10:37:31;7.55;;;2.97;;
7997;SDS011;4044;49.814;7.828;2023-06-01T10:40:09;3.53;;;2.28;;
7997;SDS011;4044;49.814;7.828;2023-06-01T10:42:47;3.78;;;2.30;;
7997;SDS011;4044;49.814;7.828;2023-06-01T10:45:35;3.28;;;2.08;;
7997;SDS011;4044;49.814;7.828;2023-06-01T10:48:11;4.70;;;3.03;;
7997;SDS011;4044;49.814;7.828;2023-06-01T10:50:38;2.28;;;2.13;;
7997;SDS011;4044;49.814;7.828;2023-06-01T10:53:22;3.63;;;2.20;;
7997;SDS011;4044;49.814;7.828;2023-06-01T10:55:48;4.45;;;2.55;;
7997;SDS011;4044;49.814;7.828;2023-06-01T10:58:44;6.55;;;3.10;;
7997;SDS011;4044;49.814;7.828;2023-06-01T11:01:10;3.90;;;2.25;;
7997;SDS011;4044;49.814;7.828;2023-06-01T11:03:46;3.47;;;2.30;;
7997;SDS011;4044;49.814;7.828;2023-06-01T11:09:02;2.80;;;2.28;;
7997;SDS011;4044;49.814;7.828;2023-06-01T11:14:13;2.10;;;1.90;;
7997;SDS011;4044;49.814;7.828;2023-06-01T11:16:39;2.30;;;2.05;;
7997;SDS011;4044;49.814;7.828;2023-06-01T11:19:05;3.25;;;1.92;;
7997;SDS011;4044;49.814;7.828;2023-06-01T11:21:36;2.20;;;2.00;;
7997;SDS011;4044;49.814;7.828;2023-06-01T11:24:06;2.40;;;2.20;;
7997;SDS011;4044;49.814;7.828;2023-06-01T11:26:42;2.90;;;2.10;;
7997;SDS011;4044;49.814;7.828;2023-06-01T11:31:42;4.68;;;2.03;;
7997;SDS011;4044;49.814;7.828;2023-06-01T11:34:10;2.47;;;1.98;;
7997;SDS011;4044;49.814;7.828;2023-06-01T11:36:38;2.42;;;2.22;;
7997;SDS011;4044;49.814;7.828;2023-06-01T11:39:05;2.35;;;1.92;;
7997;SDS011;4044;49.814;7.828;2023-06-01T11:41:40;3.47;;;2.20;;
7997;SDS011;4044;49.814;7.828;2023-06-01T11:44:06;3.38;;;1.98;;
7997;SDS011;4044;49.814;7.828;2023-06-01T11:46:32;2.47;;;2.05;;
7997;SDS011;4044;49.814;7.828;2023-06-01T11:49:04;3.53;;;2.20;;
7997;SDS011;4044;49.814;7.828;2023-06-01T11:51:31;2.38;;;1.83;;
7997;SDS011;4044;49.814;7.828;2023-06-01T11:54:01;2.45;;;1.90;;
7997;SDS011;4044;49.814;7.828;2023-06-01T11:56:31;2.45;;;2.25;;
7997;SDS011;4044;49.814;7.828;2023-06-01T11:58:59;2.33;;;1.92;;
7997;SDS011;4044;49.814;7.828;2023-06-01T12:01:25;2.53;;;2.17;;
7997;SDS011;4044;49.814;7.828;2023-06-01T12:03:52;3.03;;;2.10;;
7997;SDS011;4044;49.814;7.828;2023-06-01T12:06:21;3.22;;;2.30;;
7997;SDS011;4044;49.814;7.828;2023-06-01T12:08:48;2.63;;;2.10;;
7997;SDS011;4044;49.814;7.828;2023-06-01T12:11:17;2.15;;;2.00;;
7997;SDS011;4044;49.814;7.828;2023-06-01T12:13:46;2.42;;;2.17;;
7997;SDS011;4044;49.814;7.828;2023-06-01T12:16:13;2.88;;;2.13;;
7997;SDS011;4044;49.814;7.828;2023-06-01T12:18:41;2.22;;;2.10;;
7997;SDS011;4044;49.814;7.828;2023-06-01T12:21:10;3.08;;;2.25;;
7997;SDS011;4044;49.814;7.828;2023-06-01T12:23:37;3.03;;;2.55;;
7997;SDS011;4044;49.814;7.828;2023-06-01T12:26:02;2.90;;;2.60;;
7997;SDS011;4044;49.814;7.828;2023-06-01T12:28:28;4.78;;;2.38;;
7997;SDS011;4044;49.814;7.828;2023-06-01T12:31:11;3.33;;;2.13;;
7997;SDS011;4044;49.814;7.828;2023-06-01T12:33:39;2.97;;;2.58;;
7997;SDS011;4044;49.814;7.828;2023-06-01T12:36:06;3.10;;;2.25;;
7997;SDS011;4044;49.814;7.828;2023-06-01T12:38:51;2.72;;;2.53;;
7997;SDS011;4044;49.814;7.828;2023-06-01T12:41:17;3.40;;;2.40;;
7997;SDS011;4044;49.814;7.828;2023-06-01T12:43:46;2.83;;;2.40;;
7997;SDS011;4044;49.814;7.828;2023-06-01T12:48:44;2.88;;;2.67;;
7997;SDS011;4044;49.814;7.828;2023-06-01T12:51:11;2.58;;;2.38;;
7997;SDS011;4044;49.814;7.828;2023-06-01T12:53:37;2.75;;;2.55;;
7997;SDS011;4044;49.814;7.828;2023-06-01T12:56:03;6.30;;;2.72;;
7997;SDS011;4044;49.814;7.828;2023-06-01T12:58:29;3.35;;;2.78;;
7997;SDS011;4044;49.814;7.828;2023-06-01T13:00:55;3.28;;;2.58;;
7997;SDS011;4044;49.814;7.828;2023-06-01T13:03:21;4.43;;;2.90;;
7997;SDS011;4044;49.814;7.828;2023-06-01T13:05:48;3.72;;;2.70;;
7997;SDS011;4044;49.814;7.828;2023-06-01T13:08:15;4.65;;;2.97;;
7997;SDS011;4044;49.814;7.828;2023-06-01T13:10:41;3.28;;;2.53;;
7997;SDS011;4044;49.814;7.828;2023-06-01T13:13:07;4.45;;;3.15;;
7997;SDS011;4044;49.814;7.828;2023-06-01T13:15:33;3.08;;;2.78;;
7997;SDS011;4044;49.814;7.828;2023-06-01T13:17:59;2.72;;;2.60;;
7997;SDS011;4044;49.814;7.828;2023-06-01T13:20:25;2.90;;;2.70;;
7997;SDS011;4044;49.814;7.828;2023-06-01T13:22:51;4.20;;;2.90;;
7997;SDS011;4044;49.814;7.828;2023-06-01T13:25:17;5.00;;;3.05;;
7997;SDS011;4044;49.814;7.828;2023-06-01T13:27:44;3.92;;;2.80;;
7997;SDS011;4044;49.814;7.828;2023-06-01T13:30:10;5.57;;;3.17;;
7997;SDS011;4044;49.814;7.828;2023-06-01T13:32:36;5.53;;;2.90;;
7997;SDS011;4044;49.814;7.828;2023-06-01T13:35:01;3.05;;;2.75;;
7997;SDS011;4044;49.814;7.828;2023-06-01T13:37:27;3.63;;;3.10;;
7997;SDS011;4044;49.814;7.828;2023-06-01T13:39:52;3.35;;;2.78;;
7997;SDS011;4044;49.814;7.828;2023-06-01T13:42:18;3.03;;;2.72;;
7997;SDS011;4044;49.814;7.828;2023-06-01T13:44:44;3.22;;;2.92;;
7997;SDS011;4044;49.814;7.828;2023-06-01T13:47:13;5.43;;;3.10;;
7997;SDS011;4044;49.814;7.828;2023-06-01T13:49:42;3.45;;;3.15;;
7997;SDS011;4044;49.814;7.828;2023-06-01T13:52:08;4.55;;;3.17;;
7997;SDS011;4044;49.814;7.828;2023-06-01T13:54:34;4.80;;;3.20;;
7997;SDS011;4044;49.814;7.828;2023-06-01T13:57:00;4.35;;;3.00;;
7997;SDS011;4044;49.814;7.828;2023-06-01T13:59:27;7.30;;;2.80;;
7997;SDS011;4044;49.814;7.828;2023-06-01T14:01:55;6.05;;;3.20;;
7997;SDS011;4044;49.814;7.828;2023-06-01T14:04:21;3.83;;;2.97;;
7997;SDS011;4044;49.814;7.828;2023-06-01T14:06:47;4.50;;;2.70;;
7997;SDS011;4044;49.814;7.828;2023-06-01T14:09:15;5.85;;;2.78;;
7997;SDS011;4044;49.814;7.828;2023-06-01T14:11:41;3.47;;;2.90;;
7997;SDS011;4044;49.814;7.828;2023-06-01T14:14:07;5.50;;;3.15;;
7997;SDS011;4044;49.814;7.828;2023-06-01T14:16:33;3.35;;;3.03;;
7997;SDS011;4044;49.814;7.828;2023-06-01T14:18:58;4.13;;;3.55;;
7997;SDS011;4044;49.814;7.828;2023-06-01T14:21:24;5.00;;;3.33;;
7997;SDS011;4044;49.814;7.828;2023-06-01T14:23:50;4.60;;;3.20;;
7997;SDS011;4044;49.814;7.828;2023-06-01T14:26:16;3.42;;;2.92;;
7997;SDS011;4044;49.814;7.828;2023-06-01T14:28:41;3.88;;;2.80;;
7997;SDS011;4044;49.814;7.828;2023-06-01T14:31:07;3.88;;;2.90;;
7997;SDS011;4044;49.814;7.828;2023-06-01T14:33:32;4.13;;;2.95;;
7997;SDS011;4044;49.814;7.828;2023-06-01T14:35:58;3.55;;;3.17;;
7997;SDS011;4044;49.814;7.828;2023-06-01T14:38:23;3.80;;;3.38;;
7997;SDS011;4044;49.814;7.828;2023-06-01T14:40:49;4.10;;;3.30;;
7997;SDS011;4044;49.814;7.828;2023-06-01T14:43:14;4.20;;;3.00;;
7997;SDS011;4044;49.814;7.828;2023-06-01T14:45:40;4.72;;;3.40;;
7997;SDS011;4044;49.814;7.828;2023-06-01T14:48:05;3.63;;;3.30;;
7997;SDS011;4044;49.814;7.828;2023-06-01T14:50:31;5.45;;;3.65;;
7997;SDS011;4044;49.814;7.828;2023-06-01T14:52:56;4.22;;;3.83;;
7997;SDS011;4044;49.814;7.828;2023-06-01T14:55:25;3.88;;;3.58;;
7997;SDS011;4044;49.814;7.828;2023-06-01T14:57:51;5.20;;;3.78;;
7997;SDS011;4044;49.814;7.828;2023-06-01T15:00:17;5.82;;;4.10;;
7997;SDS011;4044;49.814;7.828;2023-06-01T15:02:43;6.05;;;4.25;;
7997;SDS011;4044;49.814;7.828;2023-06-01T15:05:10;4.80;;;4.40;;
7997;SDS011;4044;49.814;7.828;2023-06-01T15:07:36;4.22;;;3.85;;
7997;SDS011;4044;49.814;7.828;2023-06-01T15:10:02;4.35;;;3.95;;
7997;SDS011;4044;49.814;7.828;2023-06-01T15:12:28;5.35;;;4.25;;
7997;SDS011;4044;49.814;7.828;2023-06-01T15:14:54;6.15;;;4.20;;
7997;SDS011;4044;49.814;7.828;2023-06-01T15:17:19;4.28;;;3.97;;
7997;SDS011;4044;49.814;7.828;2023-06-01T15:19:45;5.97;;;4.25;;
7997;SDS011;4044;49.814;7.828;2023-06-01T15:22:11;5.70;;;4.57;;
7997;SDS011;4044;49.814;7.828;2023-06-01T15:24:37;5.05;;;4.65;;
7997;SDS011;4044;49.814;7.828;2023-06-01T15:27:04;6.50;;;5.45;;
7997;SDS011;4044;49.814;7.828;2023-06-01T15:29:31;6.20;;;5.70;;
7997;SDS011;4044;49.814;7.828;2023-06-01T15:31:56;6.32;;;5.38;;
7997;SDS011;4044;49.814;7.828;2023-06-01T15:34:22;6.05;;;5.55;;
7997;SDS011;4044;49.814;7.828;2023-06-01T15:36:48;6.40;;;4.97;;
7997;SDS011;4044;49.814;7.828;2023-06-01T15:39:13;6.65;;;5.50;;
7997;SDS011;4044;49.814;7.828;2023-06-01T15:41:40;6.03;;;5.43;;
7997;SDS011;4044;49.814;7.828;2023-06-01T15:44:06;6.18;;;5.68;;
7997;SDS011;4044;49.814;7.828;2023-06-01T15:46:32;7.25;;;5.90;;